-> Other stations

Portillo

Speed(max): 2.7(4.9)knots
Direction:128° ( SE)
Temperature: 26.7°C
Arrived: 2022-05-17 21:03:52 AST

Past data:
hh:mmknots
Dir (°)
°C
21:01 3.8 5.4 ESE(115) 26.7
20:59 3.2 5.9 ESE(113) 26.7
20:57 4.3 7 SE(130) 26.7
20:55 4.3 5.9 ESE(117) 26.7
20:53 4.9 5.9 ESE(118) 26.7
20:51 4.3 7 ESE(120) 26.7
20:49 5.4 8.1 ESE(120) 26.7
20:47 4.3 7 ESE(114) 26.7
20:45 4.3 7.6 ESE(120) 26.7
20:43 4.9 7 ESE(114) 26.7
20:41 4.9 7.6 ESE(121) 26.7
20:39 4.3 5.9 ESE(121) 26.7
20:37 4.3 5.9 SE(130) 26.7
20:35 4.3 5.9 ESE(117) 26.7
15 min. averages:
hh:mmknots
Dir (°)
°C
21:00 4.3 8.1 ESE(119) 26.7
20:45 4.3 8.1 ESE(123) 26.7
20:30 3.8 10.3 SE(131) 26.7
20:15 3.8 10.3 SE(144) 26.7
20:00 4.9 9.2 SE(131) 27.0
19:45 5.9 11.9 SE(129) 27.2
19:30 5.9 11.9 ESE(121) 27.6
19:15 6.5 10.3 ESE(109) 27.6
19:00 8.6 12.4 ESE(103) 27.5
18:45 10.8 12.4 ESE(102) 27.7
18:30 11.9 16.7 E(100) 27.5
18:15 8.1 14 ESE(108) 28.2
18:00 4.9 9.2 ESE(122) 29.0
17:45 10.3 15.1 ESE(112) 28.6
17:30 5.9 13.5 SE(126) 29.9
Stations at DO:
GoKite Kite Beach
La Boca
Playa Manatee
Playa Punta Salinas
Portillo
-> Other regions

Desktop view
Data provided by Holfuy.
© Holfuy Weather 2022